sensor_id;sensor_type;location;lat;lon;timestamp;P1;durP1;ratioP1;P2;durP2;ratioP2
43682;SDS011;29285;52.128;21.060;2024-03-06T00:01:49;49.40;;;28.00;;
43682;SDS011;29285;52.128;21.060;2024-03-06T00:06:50;47.20;;;28.30;;
43682;SDS011;29285;52.128;21.060;2024-03-06T00:11:53;47.80;;;28.40;;
43682;SDS011;29285;52.128;21.060;2024-03-06T00:16:55;47.40;;;31.10;;
43682;SDS011;29285;52.128;21.060;2024-03-06T00:21:57;49.10;;;27.90;;
43682;SDS011;29285;52.128;21.060;2024-03-06T00:26:58;49.10;;;31.00;;
43682;SDS011;29285;52.128;21.060;2024-03-06T00:31:59;44.40;;;27.50;;
43682;SDS011;29285;52.128;21.060;2024-03-06T00:37:00;50.50;;;30.30;;
43682;SDS011;29285;52.128;21.060;2024-03-06T00:42:01;50.40;;;29.60;;
43682;SDS011;29285;52.128;21.060;2024-03-06T00:47:02;55.20;;;31.30;;
43682;SDS011;29285;52.128;21.060;2024-03-06T00:52:03;49.60;;;29.90;;
43682;SDS011;29285;52.128;21.060;2024-03-06T00:57:05;54.00;;;32.50;;
43682;SDS011;29285;52.128;21.060;2024-03-06T01:02:06;50.70;;;31.50;;
43682;SDS011;29285;52.128;21.060;2024-03-06T01:07:07;58.30;;;33.30;;
43682;SDS011;29285;52.128;21.060;2024-03-06T01:12:07;48.80;;;29.90;;
43682;SDS011;29285;52.128;21.060;2024-03-06T01:17:08;49.20;;;31.90;;
43682;SDS011;29285;52.128;21.060;2024-03-06T01:22:10;52.90;;;32.30;;
43682;SDS011;29285;52.128;21.060;2024-03-06T01:27:11;49.40;;;29.20;;
43682;SDS011;29285;52.128;21.060;2024-03-06T01:32:12;52.30;;;29.60;;
43682;SDS011;29285;52.128;21.060;2024-03-06T01:37:13;50.60;;;30.30;;
43682;SDS011;29285;52.128;21.060;2024-03-06T01:42:16;48.30;;;30.90;;
43682;SDS011;29285;52.128;21.060;2024-03-06T01:47:17;49.40;;;28.10;;
43682;SDS011;29285;52.128;21.060;2024-03-06T01:52:18;47.20;;;28.40;;
43682;SDS011;29285;52.128;21.060;2024-03-06T01:57:22;42.70;;;29.20;;
43682;SDS011;29285;52.128;21.060;2024-03-06T02:02:23;40.40;;;28.40;;
43682;SDS011;29285;52.128;21.060;2024-03-06T02:07:24;42.40;;;26.70;;
43682;SDS011;29285;52.128;21.060;2024-03-06T02:12:25;36.90;;;25.60;;
43682;SDS011;29285;52.128;21.060;2024-03-06T02:17:28;36.00;;;25.30;;
43682;SDS011;29285;52.128;21.060;2024-03-06T02:22:30;37.20;;;24.30;;
43682;SDS011;29285;52.128;21.060;2024-03-06T02:27:30;34.40;;;21.90;;
43682;SDS011;29285;52.128;21.060;2024-03-06T02:32:32;33.40;;;24.50;;
43682;SDS011;29285;52.128;21.060;2024-03-06T02:37:33;30.40;;;22.00;;
43682;SDS011;29285;52.128;21.060;2024-03-06T02:42:35;32.40;;;21.40;;
43682;SDS011;29285;52.128;21.060;2024-03-06T02:47:39;31.20;;;19.70;;
43682;SDS011;29285;52.128;21.060;2024-03-06T02:52:40;30.70;;;21.10;;
43682;SDS011;29285;52.128;21.060;2024-03-06T02:57:42;28.30;;;18.80;;
43682;SDS011;29285;52.128;21.060;2024-03-06T03:02:42;29.50;;;20.60;;
43682;SDS011;29285;52.128;21.060;2024-03-06T03:07:44;29.90;;;19.30;;
43682;SDS011;29285;52.128;21.060;2024-03-06T03:12:45;29.00;;;19.50;;
43682;SDS011;29285;52.128;21.060;2024-03-06T03:17:46;28.50;;;18.90;;
43682;SDS011;29285;52.128;21.060;2024-03-06T03:22:48;24.70;;;18.80;;
43682;SDS011;29285;52.128;21.060;2024-03-06T03:27:48;37.00;;;20.60;;
43682;SDS011;29285;52.128;21.060;2024-03-06T03:32:50;24.90;;;16.40;;
43682;SDS011;29285;52.128;21.060;2024-03-06T03:37:51;23.30;;;16.80;;
43682;SDS011;29285;52.128;21.060;2024-03-06T03:42:52;22.80;;;16.20;;
43682;SDS011;29285;52.128;21.060;2024-03-06T03:47:53;21.50;;;16.70;;
43682;SDS011;29285;52.128;21.060;2024-03-06T03:52:54;25.30;;;15.80;;
43682;SDS011;29285;52.128;21.060;2024-03-06T03:57:58;21.30;;;15.80;;
43682;SDS011;29285;52.128;21.060;2024-03-06T04:02:59;23.80;;;16.00;;
43682;SDS011;29285;52.128;21.060;2024-03-06T04:08:01;24.10;;;15.80;;
43682;SDS011;29285;52.128;21.060;2024-03-06T04:13:02;21.20;;;14.70;;
43682;SDS011;29285;52.128;21.060;2024-03-06T04:18:03;24.10;;;17.20;;
43682;SDS011;29285;52.128;21.060;2024-03-06T04:23:05;20.40;;;16.40;;
43682;SDS011;29285;52.128;21.060;2024-03-06T04:28:06;27.30;;;16.50;;
43682;SDS011;29285;52.128;21.060;2024-03-06T04:33:10;21.50;;;15.10;;
43682;SDS011;29285;52.128;21.060;2024-03-06T04:38:14;21.20;;;14.90;;
43682;SDS011;29285;52.128;21.060;2024-03-06T04:43:15;19.60;;;14.10;;
43682;SDS011;29285;52.128;21.060;2024-03-06T04:48:16;24.50;;;18.50;;
43682;SDS011;29285;52.128;21.060;2024-03-06T04:53:18;18.10;;;13.30;;
43682;SDS011;29285;52.128;21.060;2024-03-06T04:58:20;22.50;;;14.90;;
43682;SDS011;29285;52.128;21.060;2024-03-06T05:03:22;21.70;;;15.00;;
43682;SDS011;29285;52.128;21.060;2024-03-06T05:08:23;19.80;;;14.50;;
43682;SDS011;29285;52.128;21.060;2024-03-06T05:13:24;23.50;;;16.50;;
43682;SDS011;29285;52.128;21.060;2024-03-06T05:18:25;17.90;;;13.60;;
43682;SDS011;29285;52.128;21.060;2024-03-06T05:23:26;25.70;;;16.20;;
43682;SDS011;29285;52.128;21.060;2024-03-06T05:28:27;20.70;;;15.10;;
43682;SDS011;29285;52.128;21.060;2024-03-06T05:33:28;21.80;;;15.00;;
43682;SDS011;29285;52.128;21.060;2024-03-06T05:38:30;31.20;;;16.50;;
43682;SDS011;29285;52.128;21.060;2024-03-06T05:43:31;20.00;;;14.90;;
43682;SDS011;29285;52.128;21.060;2024-03-06T05:48:32;22.90;;;16.10;;
43682;SDS011;29285;52.128;21.060;2024-03-06T05:53:37;20.70;;;15.30;;
43682;SDS011;29285;52.128;21.060;2024-03-06T05:58:39;20.30;;;13.40;;
43682;SDS011;29285;52.128;21.060;2024-03-06T06:03:40;24.70;;;17.40;;
43682;SDS011;29285;52.128;21.060;2024-03-06T06:08:42;19.40;;;14.50;;
43682;SDS011;29285;52.128;21.060;2024-03-06T06:13:44;23.60;;;15.20;;
43682;SDS011;29285;52.128;21.060;2024-03-06T06:18:46;22.80;;;15.50;;
43682;SDS011;29285;52.128;21.060;2024-03-06T06:23:47;19.30;;;14.20;;
43682;SDS011;29285;52.128;21.060;2024-03-06T06:28:48;24.60;;;16.70;;
43682;SDS011;29285;52.128;21.060;2024-03-06T06:33:49;22.70;;;14.50;;
43682;SDS011;29285;52.128;21.060;2024-03-06T06:38:52;26.10;;;15.70;;
43682;SDS011;29285;52.128;21.060;2024-03-06T06:43:54;20.10;;;14.80;;
43682;SDS011;29285;52.128;21.060;2024-03-06T06:48:55;19.10;;;14.00;;
43682;SDS011;29285;52.128;21.060;2024-03-06T06:53:56;21.70;;;14.30;;
43682;SDS011;29285;52.128;21.060;2024-03-06T06:58:57;20.10;;;13.80;;
43682;SDS011;29285;52.128;21.060;2024-03-06T07:03:59;16.90;;;11.70;;
43682;SDS011;29285;52.128;21.060;2024-03-06T07:09:00;19.20;;;13.00;;
43682;SDS011;29285;52.128;21.060;2024-03-06T07:14:01;19.10;;;13.10;;
43682;SDS011;29285;52.128;21.060;2024-03-06T07:19:02;18.40;;;12.90;;
43682;SDS011;29285;52.128;21.060;2024-03-06T07:24:04;17.30;;;12.90;;
43682;SDS011;29285;52.128;21.060;2024-03-06T07:29:05;23.00;;;12.50;;
43682;SDS011;29285;52.128;21.060;2024-03-06T07:34:13;20.70;;;11.20;;
43682;SDS011;29285;52.128;21.060;2024-03-06T07:39:15;23.50;;;12.70;;
43682;SDS011;29285;52.128;21.060;2024-03-06T07:44:16;18.80;;;12.10;;
43682;SDS011;29285;52.128;21.060;2024-03-06T07:49:17;17.20;;;11.90;;
43682;SDS011;29285;52.128;21.060;2024-03-06T07:54:19;15.90;;;11.60;;
43682;SDS011;29285;52.128;21.060;2024-03-06T07:59:20;20.70;;;10.90;;
43682;SDS011;29285;52.128;21.060;2024-03-06T08:04:21;20.20;;;12.20;;
43682;SDS011;29285;52.128;21.060;2024-03-06T08:09:23;17.00;;;12.20;;
43682;SDS011;29285;52.128;21.060;2024-03-06T08:14:26;16.60;;;11.30;;
43682;SDS011;29285;52.128;21.060;2024-03-06T08:19:28;14.80;;;11.70;;
43682;SDS011;29285;52.128;21.060;2024-03-06T08:24:29;20.10;;;11.10;;
43682;SDS011;29285;52.128;21.060;2024-03-06T08:29:30;17.40;;;11.10;;
43682;SDS011;29285;52.128;21.060;2024-03-06T08:34:31;17.40;;;12.40;;
43682;SDS011;29285;52.128;21.060;2024-03-06T08:39:32;16.10;;;11.90;;
43682;SDS011;29285;52.128;21.060;2024-03-06T08:44:34;16.90;;;11.50;;
43682;SDS011;29285;52.128;21.060;2024-03-06T08:49:35;21.90;;;12.60;;
43682;SDS011;29285;52.128;21.060;2024-03-06T08:54:36;21.10;;;11.70;;
43682;SDS011;29285;52.128;21.060;2024-03-06T08:59:38;20.00;;;12.90;;
43682;SDS011;29285;52.128;21.060;2024-03-06T09:04:39;17.90;;;11.70;;
43682;SDS011;29285;52.128;21.060;2024-03-06T09:09:40;18.90;;;12.40;;
43682;SDS011;29285;52.128;21.060;2024-03-06T09:14:42;19.50;;;12.20;;
43682;SDS011;29285;52.128;21.060;2024-03-06T09:19:43;44.30;;;24.30;;
43682;SDS011;29285;52.128;21.060;2024-03-06T09:24:44;28.40;;;13.30;;
43682;SDS011;29285;52.128;21.060;2024-03-06T09:29:45;23.20;;;12.90;;
43682;SDS011;29285;52.128;21.060;2024-03-06T09:34:47;22.00;;;12.10;;
43682;SDS011;29285;52.128;21.060;2024-03-06T09:39:49;21.20;;;10.80;;
43682;SDS011;29285;52.128;21.060;2024-03-06T09:44:50;23.20;;;11.40;;
43682;SDS011;29285;52.128;21.060;2024-03-06T09:49:52;21.50;;;10.80;;
43682;SDS011;29285;52.128;21.060;2024-03-06T09:54:56;16.30;;;12.20;;
43682;SDS011;29285;52.128;21.060;2024-03-06T09:59:58;17.50;;;10.60;;
43682;SDS011;29285;52.128;21.060;2024-03-06T10:04:59;17.40;;;10.90;;
43682;SDS011;29285;52.128;21.060;2024-03-06T10:10:00;16.40;;;9.80;;
43682;SDS011;29285;52.128;21.060;2024-03-06T10:15:02;19.30;;;11.20;;
43682;SDS011;29285;52.128;21.060;2024-03-06T10:25:23;15.50;;;10.10;;
43682;SDS011;29285;52.128;21.060;2024-03-06T10:30:25;16.90;;;11.40;;
43682;SDS011;29285;52.128;21.060;2024-03-06T10:35:26;17.40;;;11.50;;
43682;SDS011;29285;52.128;21.060;2024-03-06T10:40:27;19.70;;;12.10;;
43682;SDS011;29285;52.128;21.060;2024-03-06T10:45:48;25.00;;;12.70;;
43682;SDS011;29285;52.128;21.060;2024-03-06T10:50:50;20.50;;;11.70;;
43682;SDS011;29285;52.128;21.060;2024-03-06T10:55:53;20.50;;;12.30;;
43682;SDS011;29285;52.128;21.060;2024-03-06T11:00:55;20.90;;;11.30;;
43682;SDS011;29285;52.128;21.060;2024-03-06T11:05:58;17.20;;;11.40;;
43682;SDS011;29285;52.128;21.060;2024-03-06T11:16:28;18.30;;;11.00;;
43682;SDS011;29285;52.128;21.060;2024-03-06T11:21:34;17.20;;;10.10;;
43682;SDS011;29285;52.128;21.060;2024-03-06T11:26:46;15.30;;;9.30;;
43682;SDS011;29285;52.128;21.060;2024-03-06T11:32:00;16.60;;;9.00;;
43682;SDS011;29285;52.128;21.060;2024-03-06T11:37:03;12.70;;;8.80;;
43682;SDS011;29285;52.128;21.060;2024-03-06T11:42:05;14.00;;;8.90;;
43682;SDS011;29285;52.128;21.060;2024-03-06T11:47:09;11.60;;;8.40;;
43682;SDS011;29285;52.128;21.060;2024-03-06T11:52:10;12.80;;;7.10;;
43682;SDS011;29285;52.128;21.060;2024-03-06T11:57:12;13.10;;;8.00;;
43682;SDS011;29285;52.128;21.060;2024-03-06T12:02:16;10.90;;;7.70;;
43682;SDS011;29285;52.128;21.060;2024-03-06T12:07:18;17.20;;;9.10;;
43682;SDS011;29285;52.128;21.060;2024-03-06T12:12:20;11.40;;;7.30;;
43682;SDS011;29285;52.128;21.060;2024-03-06T12:17:21;12.80;;;8.60;;
43682;SDS011;29285;52.128;21.060;2024-03-06T12:22:25;13.30;;;9.20;;
43682;SDS011;29285;52.128;21.060;2024-03-06T12:27:27;15.70;;;8.50;;
43682;SDS011;29285;52.128;21.060;2024-03-06T12:32:28;10.80;;;7.20;;
43682;SDS011;29285;52.128;21.060;2024-03-06T12:37:33;10.60;;;7.20;;
43682;SDS011;29285;52.128;21.060;2024-03-06T12:42:34;16.20;;;9.40;;
43682;SDS011;29285;52.128;21.060;2024-03-06T12:47:35;9.50;;;6.30;;
43682;SDS011;29285;52.128;21.060;2024-03-06T12:52:37;11.70;;;7.90;;
43682;SDS011;29285;52.128;21.060;2024-03-06T12:57:38;7.90;;;6.20;;
43682;SDS011;29285;52.128;21.060;2024-03-06T13:02:39;10.60;;;6.80;;
43682;SDS011;29285;52.128;21.060;2024-03-06T13:07:41;11.40;;;6.90;;
43682;SDS011;29285;52.128;21.060;2024-03-06T13:12:43;8.80;;;6.00;;
43682;SDS011;29285;52.128;21.060;2024-03-06T13:17:45;9.10;;;6.30;;
43682;SDS011;29285;52.128;21.060;2024-03-06T13:22:46;9.50;;;6.10;;
43682;SDS011;29285;52.128;21.060;2024-03-06T13:27:47;8.90;;;6.40;;
43682;SDS011;29285;52.128;21.060;2024-03-06T13:32:48;9.10;;;6.70;;
43682;SDS011;29285;52.128;21.060;2024-03-06T13:37:49;11.50;;;6.20;;
43682;SDS011;29285;52.128;21.060;2024-03-06T13:42:50;12.60;;;7.50;;
43682;SDS011;29285;52.128;21.060;2024-03-06T13:47:51;12.20;;;7.90;;
43682;SDS011;29285;52.128;21.060;2024-03-06T13:52:53;11.40;;;6.90;;
43682;SDS011;29285;52.128;21.060;2024-03-06T13:57:54;11.10;;;6.80;;
43682;SDS011;29285;52.128;21.060;2024-03-06T14:02:55;11.90;;;7.40;;
43682;SDS011;29285;52.128;21.060;2024-03-06T14:07:56;8.60;;;6.10;;
43682;SDS011;29285;52.128;21.060;2024-03-06T14:13:02;8.70;;;6.10;;
43682;SDS011;29285;52.128;21.060;2024-03-06T14:18:03;11.90;;;6.80;;
43682;SDS011;29285;52.128;21.060;2024-03-06T14:23:04;10.20;;;7.00;;
43682;SDS011;29285;52.128;21.060;2024-03-06T14:28:05;11.10;;;6.40;;
43682;SDS011;29285;52.128;21.060;2024-03-06T14:33:06;11.50;;;6.50;;
43682;SDS011;29285;52.128;21.060;2024-03-06T14:38:07;11.30;;;6.30;;
43682;SDS011;29285;52.128;21.060;2024-03-06T14:43:08;13.60;;;6.80;;
43682;SDS011;29285;52.128;21.060;2024-03-06T14:48:10;11.70;;;6.50;;
43682;SDS011;29285;52.128;21.060;2024-03-06T14:53:11;9.60;;;5.80;;
43682;SDS011;29285;52.128;21.060;2024-03-06T14:58:13;9.80;;;6.20;;
43682;SDS011;29285;52.128;21.060;2024-03-06T15:03:14;10.00;;;6.60;;
43682;SDS011;29285;52.128;21.060;2024-03-06T15:08:15;10.70;;;6.20;;
43682;SDS011;29285;52.128;21.060;2024-03-06T15:13:17;11.60;;;6.30;;
43682;SDS011;29285;52.128;21.060;2024-03-06T15:18:19;9.40;;;5.60;;
43682;SDS011;29285;52.128;21.060;2024-03-06T15:23:21;10.90;;;7.00;;
43682;SDS011;29285;52.128;21.060;2024-03-06T15:28:22;11.00;;;5.60;;
43682;SDS011;29285;52.128;21.060;2024-03-06T15:33:23;10.50;;;6.30;;
43682;SDS011;29285;52.128;21.060;2024-03-06T15:38:25;10.80;;;6.90;;
43682;SDS011;29285;52.128;21.060;2024-03-06T15:43:27;9.40;;;5.90;;
43682;SDS011;29285;52.128;21.060;2024-03-06T15:48:28;8.90;;;6.00;;
43682;SDS011;29285;52.128;21.060;2024-03-06T15:53:31;10.40;;;6.00;;
43682;SDS011;29285;52.128;21.060;2024-03-06T15:58:32;10.60;;;6.40;;
43682;SDS011;29285;52.128;21.060;2024-03-06T16:03:34;10.40;;;6.50;;
43682;SDS011;29285;52.128;21.060;2024-03-06T16:08:36;12.70;;;7.30;;
43682;SDS011;29285;52.128;21.060;2024-03-06T16:13:38;9.80;;;5.60;;
43682;SDS011;29285;52.128;21.060;2024-03-06T16:18:39;10.20;;;5.80;;
43682;SDS011;29285;52.128;21.060;2024-03-06T16:23:40;12.20;;;7.00;;
43682;SDS011;29285;52.128;21.060;2024-03-06T16:28:42;11.80;;;5.90;;
43682;SDS011;29285;52.128;21.060;2024-03-06T16:33:43;9.70;;;6.10;;
43682;SDS011;29285;52.128;21.060;2024-03-06T16:38:46;11.10;;;6.50;;
43682;SDS011;29285;52.128;21.060;2024-03-06T16:43:47;10.70;;;6.30;;
43682;SDS011;29285;52.128;21.060;2024-03-06T16:48:48;11.90;;;5.70;;
43682;SDS011;29285;52.128;21.060;2024-03-06T16:53:49;10.70;;;6.70;;
43682;SDS011;29285;52.128;21.060;2024-03-06T16:58:50;9.30;;;5.70;;
43682;SDS011;29285;52.128;21.060;2024-03-06T17:03:51;12.70;;;7.20;;
43682;SDS011;29285;52.128;21.060;2024-03-06T17:08:53;12.50;;;7.90;;
43682;SDS011;29285;52.128;21.060;2024-03-06T17:13:54;9.80;;;6.30;;
43682;SDS011;29285;52.128;21.060;2024-03-06T17:18:55;10.50;;;6.40;;
43682;SDS011;29285;52.128;21.060;2024-03-06T17:23:56;12.00;;;8.20;;
43682;SDS011;29285;52.128;21.060;2024-03-06T17:28:59;12.90;;;7.80;;
43682;SDS011;29285;52.128;21.060;2024-03-06T17:34:01;9.00;;;6.60;;
43682;SDS011;29285;52.128;21.060;2024-03-06T17:39:03;12.40;;;7.70;;
43682;SDS011;29285;52.128;21.060;2024-03-06T17:44:04;13.50;;;7.80;;
43682;SDS011;29285;52.128;21.060;2024-03-06T17:49:06;13.90;;;7.60;;
43682;SDS011;29285;52.128;21.060;2024-03-06T17:54:07;16.60;;;9.60;;
43682;SDS011;29285;52.128;21.060;2024-03-06T17:59:15;11.60;;;8.60;;
43682;SDS011;29285;52.128;21.060;2024-03-06T18:04:18;11.30;;;7.50;;
43682;SDS011;29285;52.128;21.060;2024-03-06T18:09:19;15.10;;;10.00;;
43682;SDS011;29285;52.128;21.060;2024-03-06T18:14:20;13.00;;;9.00;;
43682;SDS011;29285;52.128;21.060;2024-03-06T18:19:21;12.90;;;9.00;;
43682;SDS011;29285;52.128;21.060;2024-03-06T18:24:22;13.40;;;8.80;;
43682;SDS011;29285;52.128;21.060;2024-03-06T18:29:24;16.10;;;9.80;;
43682;SDS011;29285;52.128;21.060;2024-03-06T18:34:25;20.90;;;9.60;;
43682;SDS011;29285;52.128;21.060;2024-03-06T18:39:27;27.80;;;11.30;;
43682;SDS011;29285;52.128;21.060;2024-03-06T18:44:28;19.20;;;9.90;;
43682;SDS011;29285;52.128;21.060;2024-03-06T18:49:29;14.30;;;9.70;;
43682;SDS011;29285;52.128;21.060;2024-03-06T18:54:31;13.50;;;9.30;;
43682;SDS011;29285;52.128;21.060;2024-03-06T18:59:32;18.50;;;9.60;;
43682;SDS011;29285;52.128;21.060;2024-03-06T19:04:33;15.80;;;10.60;;
43682;SDS011;29285;52.128;21.060;2024-03-06T19:09:37;14.50;;;9.40;;
43682;SDS011;29285;52.128;21.060;2024-03-06T19:14:38;13.70;;;9.00;;
43682;SDS011;29285;52.128;21.060;2024-03-06T19:19:40;14.90;;;10.50;;
43682;SDS011;29285;52.128;21.060;2024-03-06T19:24:41;17.00;;;10.30;;
43682;SDS011;29285;52.128;21.060;2024-03-06T19:29:43;19.50;;;10.90;;
43682;SDS011;29285;52.128;21.060;2024-03-06T19:34:44;18.70;;;10.40;;
43682;SDS011;29285;52.128;21.060;2024-03-06T19:39:45;18.40;;;10.00;;
43682;SDS011;29285;52.128;21.060;2024-03-06T19:44:47;16.40;;;10.20;;
43682;SDS011;29285;52.128;21.060;2024-03-06T19:49:48;16.10;;;10.60;;
43682;SDS011;29285;52.128;21.060;2024-03-06T19:54:50;19.60;;;10.90;;
43682;SDS011;29285;52.128;21.060;2024-03-06T19:59:51;20.60;;;12.50;;
43682;SDS011;29285;52.128;21.060;2024-03-06T20:04:53;19.90;;;11.00;;
43682;SDS011;29285;52.128;21.060;2024-03-06T20:09:54;18.20;;;11.50;;
43682;SDS011;29285;52.128;21.060;2024-03-06T20:14:55;17.30;;;11.80;;
43682;SDS011;29285;52.128;21.060;2024-03-06T20:19:57;20.60;;;11.90;;
43682;SDS011;29285;52.128;21.060;2024-03-06T20:24:58;19.60;;;11.30;;
43682;SDS011;29285;52.128;21.060;2024-03-06T20:29:59;19.50;;;11.20;;
43682;SDS011;29285;52.128;21.060;2024-03-06T20:35:00;20.00;;;12.70;;
43682;SDS011;29285;52.128;21.060;2024-03-06T20:40:02;17.00;;;11.40;;
43682;SDS011;29285;52.128;21.060;2024-03-06T20:45:03;20.60;;;11.90;;
43682;SDS011;29285;52.128;21.060;2024-03-06T20:50:05;22.70;;;12.50;;
43682;SDS011;29285;52.128;21.060;2024-03-06T20:55:07;23.10;;;13.40;;
43682;SDS011;29285;52.128;21.060;2024-03-06T21:00:09;21.00;;;12.30;;
43682;SDS011;29285;52.128;21.060;2024-03-06T21:05:16;20.70;;;13.30;;
43682;SDS011;29285;52.128;21.060;2024-03-06T21:10:17;21.30;;;13.00;;
43682;SDS011;29285;52.128;21.060;2024-03-06T21:15:19;21.10;;;12.60;;
43682;SDS011;29285;52.128;21.060;2024-03-06T21:20:20;25.10;;;14.30;;
43682;SDS011;29285;52.128;21.060;2024-03-06T21:25:22;22.80;;;13.40;;
43682;SDS011;29285;52.128;21.060;2024-03-06T21:30:24;22.00;;;13.50;;
43682;SDS011;29285;52.128;21.060;2024-03-06T21:35:25;19.70;;;13.80;;
43682;SDS011;29285;52.128;21.060;2024-03-06T21:40:27;17.40;;;12.00;;
43682;SDS011;29285;52.128;21.060;2024-03-06T21:45:29;24.50;;;14.50;;
43682;SDS011;29285;52.128;21.060;2024-03-06T21:50:31;22.00;;;14.70;;
43682;SDS011;29285;52.128;21.060;2024-03-06T21:55:32;20.90;;;12.70;;
43682;SDS011;29285;52.128;21.060;2024-03-06T22:00:33;18.70;;;12.40;;
43682;SDS011;29285;52.128;21.060;2024-03-06T22:05:34;26.30;;;13.90;;
43682;SDS011;29285;52.128;21.060;2024-03-06T22:10:35;19.10;;;13.70;;
43682;SDS011;29285;52.128;21.060;2024-03-06T22:15:36;18.10;;;12.10;;
43682;SDS011;29285;52.128;21.060;2024-03-06T22:20:40;18.70;;;12.70;;
43682;SDS011;29285;52.128;21.060;2024-03-06T22:25:42;21.60;;;13.30;;
43682;SDS011;29285;52.128;21.060;2024-03-06T22:30:43;21.90;;;13.80;;
43682;SDS011;29285;52.128;21.060;2024-03-06T22:35:46;17.60;;;12.50;;
43682;SDS011;29285;52.128;21.060;2024-03-06T22:40:47;19.90;;;13.00;;
43682;SDS011;29285;52.128;21.060;2024-03-06T22:45:48;20.80;;;13.10;;
43682;SDS011;29285;52.128;21.060;2024-03-06T22:50:49;19.40;;;13.30;;
43682;SDS011;29285;52.128;21.060;2024-03-06T22:55:50;18.20;;;13.00;;
43682;SDS011;29285;52.128;21.060;2024-03-06T23:00:51;22.10;;;11.60;;
43682;SDS011;29285;52.128;21.060;2024-03-06T23:05:53;14.90;;;10.00;;
43682;SDS011;29285;52.128;21.060;2024-03-06T23:10:54;13.60;;;9.60;;
43682;SDS011;29285;52.128;21.060;2024-03-06T23:20:59;16.60;;;11.80;;
43682;SDS011;29285;52.128;21.060;2024-03-06T23:26:00;14.50;;;10.20;;
43682;SDS011;29285;52.128;21.060;2024-03-06T23:31:01;15.20;;;10.60;;
43682;SDS011;29285;52.128;21.060;2024-03-06T23:36:03;18.30;;;12.50;;
43682;SDS011;29285;52.128;21.060;2024-03-06T23:41:04;17.40;;;11.60;;
43682;SDS011;29285;52.128;21.060;2024-03-06T23:46:05;22.40;;;13.10;;
43682;SDS011;29285;52.128;21.060;2024-03-06T23:51:06;20.10;;;13.30;;
43682;SDS011;29285;52.128;21.060;2024-03-06T23:56:07;17.00;;;10.80;;
